sensor_id;sensor_type;location;lat;lon;timestamp;pressure;altitude;pressure_sealevel;temperature;humidity
20009;BME280;10165;42.662;23.260;2023-02-11T00:00:43;95741.00;;;-0.26;48.31
20009;BME280;10165;42.662;23.260;2023-02-11T00:03:10;95736.47;;;-0.31;49.03
20009;BME280;10165;42.662;23.260;2023-02-11T00:05:36;95743.38;;;-0.70;50.04
20009;BME280;10165;42.662;23.260;2023-02-11T00:08:03;95744.41;;;-0.71;49.10
20009;BME280;10165;42.662;23.260;2023-02-11T00:10:30;95736.41;;;-0.76;49.40
20009;BME280;10165;42.662;23.260;2023-02-11T00:12:56;95730.88;;;-0.91;49.24
20009;BME280;10165;42.662;23.260;2023-02-11T00:15:23;95752.16;;;-1.16;50.31
20009;BME280;10165;42.662;23.260;2023-02-11T00:17:50;95743.75;;;-0.78;49.78
20009;BME280;10165;42.662;23.260;2023-02-11T00:20:16;95746.97;;;-0.99;50.37
20009;BME280;10165;42.662;23.260;2023-02-11T00:22:43;95751.00;;;-1.20;50.79
20009;BME280;10165;42.662;23.260;2023-02-11T00:25:10;95740.16;;;-1.00;50.19
20009;BME280;10165;42.662;23.260;2023-02-11T00:27:37;95752.50;;;-0.84;49.99
20009;BME280;10165;42.662;23.260;2023-02-11T00:30:04;95741.94;;;-0.61;49.06
20009;BME280;10165;42.662;23.260;2023-02-11T00:32:31;95750.31;;;-1.04;50.04
20009;BME280;10165;42.662;23.260;2023-02-11T00:34:58;95745.59;;;-0.90;50.09
20009;BME280;10165;42.662;23.260;2023-02-11T00:37:24;95745.69;;;-0.57;49.05
20009;BME280;10165;42.662;23.260;2023-02-11T00:39:51;95737.81;;;-0.28;48.57
20009;BME280;10165;42.662;23.260;2023-02-11T00:42:18;95738.81;;;-0.01;47.60
20009;BME280;10165;42.662;23.260;2023-02-11T00:44:44;95740.88;;;-0.20;47.90
20009;BME280;10165;42.662;23.260;2023-02-11T00:47:11;95735.41;;;-0.46;48.13
20009;BME280;10165;42.662;23.260;2023-02-11T00:49:38;95730.69;;;0.00;47.54
20009;BME280;10165;42.662;23.260;2023-02-11T00:52:06;95729.69;;;-0.43;47.81
20009;BME280;10165;42.662;23.260;2023-02-11T00:54:32;95730.66;;;-0.61;48.50
20009;BME280;10165;42.662;23.260;2023-02-11T00:56:59;95731.75;;;-1.37;50.02
20009;BME280;10165;42.662;23.260;2023-02-11T00:59:26;95727.09;;;-1.35;50.32
20009;BME280;10165;42.662;23.260;2023-02-11T01:01:53;95732.22;;;-1.40;50.34
20009;BME280;10165;42.662;23.260;2023-02-11T01:04:20;95727.91;;;-1.58;50.94
20009;BME280;10165;42.662;23.260;2023-02-11T01:06:46;95730.28;;;-1.45;50.91
20009;BME280;10165;42.662;23.260;2023-02-11T01:09:14;95728.56;;;-1.16;49.68
20009;BME280;10165;42.662;23.260;2023-02-11T01:11:41;95718.31;;;-0.77;48.86
20009;BME280;10165;42.662;23.260;2023-02-11T01:14:08;95726.78;;;-0.99;49.01
20009;BME280;10165;42.662;23.260;2023-02-11T01:16:34;95723.81;;;-1.42;48.70
20009;BME280;10165;42.662;23.260;2023-02-11T01:19:01;95713.56;;;-1.55;50.27
20009;BME280;10165;42.662;23.260;2023-02-11T01:21:28;95721.09;;;-1.07;49.37
20009;BME280;10165;42.662;23.260;2023-02-11T01:23:55;95721.25;;;-0.74;48.59
20009;BME280;10165;42.662;23.260;2023-02-11T01:26:21;95709.28;;;-1.21;49.09
20009;BME280;10165;42.662;23.260;2023-02-11T01:28:48;95715.78;;;-1.12;48.87
20009;BME280;10165;42.662;23.260;2023-02-11T01:31:14;95715.59;;;-1.46;49.51
20009;BME280;10165;42.662;23.260;2023-02-11T01:33:41;95718.09;;;-1.27;49.42
20009;BME280;10165;42.662;23.260;2023-02-11T01:36:09;95720.34;;;-1.08;48.93
20009;BME280;10165;42.662;23.260;2023-02-11T01:38:36;95708.19;;;-1.83;50.35
20009;BME280;10165;42.662;23.260;2023-02-11T01:41:06;95709.97;;;-1.26;50.00
20009;BME280;10165;42.662;23.260;2023-02-11T01:43:53;95707.56;;;-0.76;48.43
20009;BME280;10165;42.662;23.260;2023-02-11T01:46:36;95709.59;;;-1.06;49.07
20009;BME280;10165;42.662;23.260;2023-02-11T01:49:07;95700.97;;;-0.78;48.04
20009;BME280;10165;42.662;23.260;2023-02-11T01:51:45;95711.25;;;-1.40;49.31
20009;BME280;10165;42.662;23.260;2023-02-11T01:54:16;95703.16;;;-0.87;48.55
20009;BME280;10165;42.662;23.260;2023-02-11T01:57:03;95692.81;;;-0.93;48.65
20009;BME280;10165;42.662;23.260;2023-02-11T02:08:24;95709.59;;;-1.06;48.25
20009;BME280;10165;42.662;23.260;2023-02-11T02:10:55;95699.44;;;-1.03;48.09
20009;BME280;10165;42.662;23.260;2023-02-11T02:13:24;95701.88;;;-1.13;47.81
20009;BME280;10165;42.662;23.260;2023-02-11T02:15:53;95712.88;;;-1.62;49.00
20009;BME280;10165;42.662;23.260;2023-02-11T02:26:52;95711.75;;;-1.55;48.41
20009;BME280;10165;42.662;23.260;2023-02-11T02:37:46;95706.28;;;-1.76;48.79
20009;BME280;10165;42.662;23.260;2023-02-11T02:40:26;95706.50;;;-1.55;48.62
20009;BME280;10165;42.662;23.260;2023-02-11T02:42:54;95701.25;;;-1.66;48.73
20009;BME280;10165;42.662;23.260;2023-02-11T02:45:21;95697.31;;;-1.17;48.25
20009;BME280;10165;42.662;23.260;2023-02-11T02:47:48;95704.34;;;-1.69;48.87
20009;BME280;10165;42.662;23.260;2023-02-11T02:50:17;95698.19;;;-1.75;49.18
20009;BME280;10165;42.662;23.260;2023-02-11T02:52:59;95703.09;;;-1.67;48.56
20009;BME280;10165;42.662;23.260;2023-02-11T02:55:37;95705.81;;;-1.85;48.97
20009;BME280;10165;42.662;23.260;2023-02-11T03:09:13;95698.75;;;-1.50;48.06
20009;BME280;10165;42.662;23.260;2023-02-11T03:11:41;95693.59;;;-1.45;47.94
20009;BME280;10165;42.662;23.260;2023-02-11T03:14:11;95694.09;;;-1.71;48.68
20009;BME280;10165;42.662;23.260;2023-02-11T03:16:41;95705.09;;;-1.46;48.00
20009;BME280;10165;42.662;23.260;2023-02-11T03:19:21;95701.34;;;-1.38;47.59
20009;BME280;10165;42.662;23.260;2023-02-11T03:21:50;95702.97;;;-0.97;46.93
20009;BME280;10165;42.662;23.260;2023-02-11T03:24:27;95702.84;;;-1.42;47.96
20009;BME280;10165;42.662;23.260;2023-02-11T03:26:58;95694.97;;;-1.30;47.66
20009;BME280;10165;42.662;23.260;2023-02-11T03:29:50;95697.28;;;-1.06;47.36
20009;BME280;10165;42.662;23.260;2023-02-11T03:32:35;95688.94;;;-1.03;46.92
20009;BME280;10165;42.662;23.260;2023-02-11T03:35:14;95697.81;;;-1.32;46.74
20009;BME280;10165;42.662;23.260;2023-02-11T03:37:50;95695.44;;;-1.45;47.10
20009;BME280;10165;42.662;23.260;2023-02-11T03:40:23;95688.91;;;-1.19;46.58
20009;BME280;10165;42.662;23.260;2023-02-11T03:43:17;95691.28;;;-1.18;46.38
20009;BME280;10165;42.662;23.260;2023-02-11T03:45:47;95691.69;;;-1.84;47.34
20009;BME280;10165;42.662;23.260;2023-02-11T03:48:21;95694.59;;;-1.34;47.04
20009;BME280;10165;42.662;23.260;2023-02-11T03:50:50;95692.41;;;-1.88;47.26
20009;BME280;10165;42.662;23.260;2023-02-11T03:53:19;95692.47;;;-2.07;48.12
20009;BME280;10165;42.662;23.260;2023-02-11T03:55:49;95692.13;;;-1.99;47.46
20009;BME280;10165;42.662;23.260;2023-02-11T03:58:18;95691.81;;;-1.67;46.98
20009;BME280;10165;42.662;23.260;2023-02-11T04:00:45;95704.44;;;-1.99;47.23
20009;BME280;10165;42.662;23.260;2023-02-11T04:03:12;95698.00;;;-2.50;47.41
20009;BME280;10165;42.662;23.260;2023-02-11T04:05:39;95693.81;;;-2.39;48.09
20009;BME280;10165;42.662;23.260;2023-02-11T04:08:06;95695.09;;;-1.95;46.98
20009;BME280;10165;42.662;23.260;2023-02-11T04:10:33;95695.22;;;-1.90;46.93
20009;BME280;10165;42.662;23.260;2023-02-11T04:13:00;95700.22;;;-2.23;47.61
20009;BME280;10165;42.662;23.260;2023-02-11T04:15:27;95693.69;;;-2.32;48.06
20009;BME280;10165;42.662;23.260;2023-02-11T04:17:53;95691.94;;;-1.97;47.05
20009;BME280;10165;42.662;23.260;2023-02-11T04:20:20;95692.81;;;-1.68;46.35
20009;BME280;10165;42.662;23.260;2023-02-11T04:22:47;95691.34;;;-1.64;46.29
20009;BME280;10165;42.662;23.260;2023-02-11T04:25:13;95692.59;;;-1.55;45.37
20009;BME280;10165;42.662;23.260;2023-02-11T04:27:40;95690.09;;;-2.08;46.39
20009;BME280;10165;42.662;23.260;2023-02-11T04:30:08;95691.22;;;-2.69;48.02
20009;BME280;10165;42.662;23.260;2023-02-11T04:32:34;95687.63;;;-2.45;47.77
20009;BME280;10165;42.662;23.260;2023-02-11T04:35:01;95688.72;;;-1.76;46.90
20009;BME280;10165;42.662;23.260;2023-02-11T04:37:28;95684.63;;;-1.83;46.56
20009;BME280;10165;42.662;23.260;2023-02-11T04:39:55;95690.13;;;-1.73;46.34
20009;BME280;10165;42.662;23.260;2023-02-11T04:42:22;95681.59;;;-1.80;46.25
20009;BME280;10165;42.662;23.260;2023-02-11T04:44:49;95682.16;;;-1.15;45.29
20009;BME280;10165;42.662;23.260;2023-02-11T04:47:16;95674.63;;;-0.83;44.45
20009;BME280;10165;42.662;23.260;2023-02-11T04:49:43;95680.63;;;-1.51;44.81
20009;BME280;10165;42.662;23.260;2023-02-11T04:52:09;95687.03;;;-1.82;46.25
20009;BME280;10165;42.662;23.260;2023-02-11T04:54:36;95684.97;;;-1.80;46.05
20009;BME280;10165;42.662;23.260;2023-02-11T04:57:03;95674.41;;;-1.62;46.27
20009;BME280;10165;42.662;23.260;2023-02-11T04:59:29;95683.13;;;-1.56;45.84
20009;BME280;10165;42.662;23.260;2023-02-11T05:01:56;95675.25;;;-1.45;45.15
20009;BME280;10165;42.662;23.260;2023-02-11T05:04:23;95674.94;;;-1.71;45.66
20009;BME280;10165;42.662;23.260;2023-02-11T05:06:50;95675.28;;;-1.68;46.03
20009;BME280;10165;42.662;23.260;2023-02-11T05:09:17;95671.19;;;-1.99;46.49
20009;BME280;10165;42.662;23.260;2023-02-11T05:11:43;95668.34;;;-2.20;47.13
20009;BME280;10165;42.662;23.260;2023-02-11T05:14:10;95665.53;;;-2.07;46.75
20009;BME280;10165;42.662;23.260;2023-02-11T05:16:37;95658.78;;;-2.26;46.88
20009;BME280;10165;42.662;23.260;2023-02-11T05:19:04;95659.91;;;-1.76;46.52
20009;BME280;10165;42.662;23.260;2023-02-11T05:21:30;95660.72;;;-1.64;45.90
20009;BME280;10165;42.662;23.260;2023-02-11T05:23:57;95658.44;;;-2.18;46.49
20009;BME280;10165;42.662;23.260;2023-02-11T05:26:24;95665.06;;;-2.16;46.67
20009;BME280;10165;42.662;23.260;2023-02-11T05:28:51;95676.50;;;-2.40;46.87
20009;BME280;10165;42.662;23.260;2023-02-11T05:31:17;95671.91;;;-2.56;47.33
20009;BME280;10165;42.662;23.260;2023-02-11T05:33:44;95671.81;;;-2.61;47.65
20009;BME280;10165;42.662;23.260;2023-02-11T05:36:12;95674.56;;;-2.33;47.12
20009;BME280;10165;42.662;23.260;2023-02-11T05:38:39;95659.59;;;-1.91;47.00
20009;BME280;10165;42.662;23.260;2023-02-11T05:41:06;95662.78;;;-1.89;46.67
20009;BME280;10165;42.662;23.260;2023-02-11T05:43:33;95670.50;;;-2.17;48.02
20009;BME280;10165;42.662;23.260;2023-02-11T05:46:02;95667.56;;;-2.09;48.52
20009;BME280;10165;42.662;23.260;2023-02-11T05:48:29;95665.63;;;-1.79;47.62
20009;BME280;10165;42.662;23.260;2023-02-11T05:50:56;95666.06;;;-1.70;47.28
20009;BME280;10165;42.662;23.260;2023-02-11T05:53:23;95670.97;;;-1.62;47.39
20009;BME280;10165;42.662;23.260;2023-02-11T05:55:49;95666.06;;;-1.47;47.02
20009;BME280;10165;42.662;23.260;2023-02-11T05:58:17;95663.25;;;-1.69;47.18
20009;BME280;10165;42.662;23.260;2023-02-11T06:00:43;95671.53;;;-2.07;47.54
20009;BME280;10165;42.662;23.260;2023-02-11T06:03:10;95674.16;;;-1.95;47.69
20009;BME280;10165;42.662;23.260;2023-02-11T06:05:37;95675.75;;;-1.94;47.29
20009;BME280;10165;42.662;23.260;2023-02-11T06:08:05;95673.72;;;-1.92;47.46
20009;BME280;10165;42.662;23.260;2023-02-11T06:10:31;95679.50;;;-2.02;47.25
20009;BME280;10165;42.662;23.260;2023-02-11T06:12:58;95680.09;;;-2.53;48.58
20009;BME280;10165;42.662;23.260;2023-02-11T06:15:25;95686.72;;;-2.50;48.46
20009;BME280;10165;42.662;23.260;2023-02-11T06:17:52;95687.97;;;-2.82;49.94
20009;BME280;10165;42.662;23.260;2023-02-11T06:20:18;95683.38;;;-2.27;49.70
20009;BME280;10165;42.662;23.260;2023-02-11T06:22:45;95684.75;;;-2.13;49.29
20009;BME280;10165;42.662;23.260;2023-02-11T06:25:12;95692.41;;;-1.77;48.40
20009;BME280;10165;42.662;23.260;2023-02-11T06:27:40;95684.06;;;-1.97;48.34
20009;BME280;10165;42.662;23.260;2023-02-11T06:30:07;95686.47;;;-2.07;48.44
20009;BME280;10165;42.662;23.260;2023-02-11T06:32:34;95677.81;;;-1.84;48.23
20009;BME280;10165;42.662;23.260;2023-02-11T06:35:10;95677.69;;;-1.66;47.63
20009;BME280;10165;42.662;23.260;2023-02-11T06:37:38;95684.50;;;-1.30;46.50
20009;BME280;10165;42.662;23.260;2023-02-11T06:40:06;95688.63;;;-1.46;46.68
20009;BME280;10165;42.662;23.260;2023-02-11T06:42:32;95687.25;;;-2.07;46.81
20009;BME280;10165;42.662;23.260;2023-02-11T06:45:01;95688.97;;;-1.89;47.95
20009;BME280;10165;42.662;23.260;2023-02-11T06:47:28;95692.38;;;-2.00;48.69
20009;BME280;10165;42.662;23.260;2023-02-11T06:49:55;95696.13;;;-2.08;48.62
20009;BME280;10165;42.662;23.260;2023-02-11T06:52:22;95697.38;;;-1.64;47.88
20009;BME280;10165;42.662;23.260;2023-02-11T06:54:48;95688.47;;;-1.28;47.76
20009;BME280;10165;42.662;23.260;2023-02-11T06:57:15;95688.75;;;-1.13;47.06
20009;BME280;10165;42.662;23.260;2023-02-11T06:59:41;95689.63;;;-1.47;47.16
20009;BME280;10165;42.662;23.260;2023-02-11T07:02:09;95693.94;;;-1.53;47.65
20009;BME280;10165;42.662;23.260;2023-02-11T07:04:36;95701.13;;;-1.60;48.41
20009;BME280;10165;42.662;23.260;2023-02-11T07:07:03;95698.19;;;-1.75;48.94
20009;BME280;10165;42.662;23.260;2023-02-11T07:09:30;95695.34;;;-1.85;49.76
20009;BME280;10165;42.662;23.260;2023-02-11T07:11:56;95687.19;;;-1.25;48.80
20009;BME280;10165;42.662;23.260;2023-02-11T07:14:23;95679.56;;;-1.15;48.57
20009;BME280;10165;42.662;23.260;2023-02-11T07:16:50;95688.94;;;-0.63;47.96
20009;BME280;10165;42.662;23.260;2023-02-11T07:19:16;95679.63;;;-0.54;47.61
20009;BME280;10165;42.662;23.260;2023-02-11T07:21:43;95675.44;;;-1.11;48.18
20009;BME280;10165;42.662;23.260;2023-02-11T07:24:10;95674.69;;;-0.95;47.75
20009;BME280;10165;42.662;23.260;2023-02-11T07:26:37;95674.69;;;-0.95;47.19
20009;BME280;10165;42.662;23.260;2023-02-11T07:29:04;95677.22;;;-1.00;47.23
20009;BME280;10165;42.662;23.260;2023-02-11T07:31:31;95674.88;;;-0.85;47.26
20009;BME280;10165;42.662;23.260;2023-02-11T07:34:00;95662.31;;;-0.83;47.33
20009;BME280;10165;42.662;23.260;2023-02-11T07:36:28;95664.13;;;-0.83;47.71
20009;BME280;10165;42.662;23.260;2023-02-11T07:38:55;95656.28;;;-0.83;47.80
20009;BME280;10165;42.662;23.260;2023-02-11T07:41:23;95653.00;;;-0.45;46.93
20009;BME280;10165;42.662;23.260;2023-02-11T07:43:50;95648.59;;;-1.02;46.46
20009;BME280;10165;42.662;23.260;2023-02-11T07:46:24;95653.88;;;-1.13;46.67
20009;BME280;10165;42.662;23.260;2023-02-11T07:48:52;95646.66;;;-1.06;46.90
20009;BME280;10165;42.662;23.260;2023-02-11T07:51:24;95646.09;;;-0.52;46.03
20009;BME280;10165;42.662;23.260;2023-02-11T07:53:52;95647.28;;;-0.59;45.69
20009;BME280;10165;42.662;23.260;2023-02-11T07:56:20;95647.69;;;-0.51;46.00
20009;BME280;10165;42.662;23.260;2023-02-11T07:58:47;95651.25;;;-0.40;45.97
20009;BME280;10165;42.662;23.260;2023-02-11T08:01:20;95651.56;;;-0.70;46.63
20009;BME280;10165;42.662;23.260;2023-02-11T08:03:51;95650.59;;;-0.64;46.39
20009;BME280;10165;42.662;23.260;2023-02-11T08:06:20;95656.19;;;-0.43;46.58
20009;BME280;10165;42.662;23.260;2023-02-11T08:08:48;95654.13;;;-0.86;46.89
20009;BME280;10165;42.662;23.260;2023-02-11T08:11:26;95647.50;;;-1.17;48.01
20009;BME280;10165;42.662;23.260;2023-02-11T08:13:55;95655.44;;;-1.01;48.15
20009;BME280;10165;42.662;23.260;2023-02-11T08:16:34;95649.28;;;-1.06;48.85
20009;BME280;10165;42.662;23.260;2023-02-11T08:19:05;95652.91;;;-1.24;48.93
20009;BME280;10165;42.662;23.260;2023-02-11T08:21:32;95649.88;;;-1.04;48.32
20009;BME280;10165;42.662;23.260;2023-02-11T08:24:00;95647.56;;;-1.40;49.33
20009;BME280;10165;42.662;23.260;2023-02-11T08:26:28;95655.78;;;-1.49;49.85
20009;BME280;10165;42.662;23.260;2023-02-11T08:28:55;95656.97;;;-1.16;48.96
20009;BME280;10165;42.662;23.260;2023-02-11T08:31:25;95653.09;;;-0.85;49.00
20009;BME280;10165;42.662;23.260;2023-02-11T08:33:53;95651.72;;;-0.60;49.07
20009;BME280;10165;42.662;23.260;2023-02-11T08:36:22;95649.84;;;-1.32;51.23
20009;BME280;10165;42.662;23.260;2023-02-11T08:38:49;95659.41;;;-0.70;50.43
20009;BME280;10165;42.662;23.260;2023-02-11T08:41:16;95653.38;;;-0.99;49.48
20009;BME280;10165;42.662;23.260;2023-02-11T08:43:44;95659.69;;;-0.83;50.68
20009;BME280;10165;42.662;23.260;2023-02-11T08:46:14;95647.28;;;-0.26;50.01
20009;BME280;10165;42.662;23.260;2023-02-11T08:48:41;95658.78;;;-0.60;50.05
20009;BME280;10165;42.662;23.260;2023-02-11T08:51:29;95653.69;;;-0.95;52.15
20009;BME280;10165;42.662;23.260;2023-02-11T08:53:57;95650.59;;;-0.64;51.64
20009;BME280;10165;42.662;23.260;2023-02-11T08:56:24;95650.81;;;-0.20;51.00
20009;BME280;10165;42.662;23.260;2023-02-11T08:58:52;95643.88;;;-0.10;49.64
20009;BME280;10165;42.662;23.260;2023-02-11T09:01:22;95652.44;;;-0.47;50.18
20009;BME280;10165;42.662;23.260;2023-02-11T09:03:50;95654.19;;;0.14;48.47
20009;BME280;10165;42.662;23.260;2023-02-11T09:06:17;95642.63;;;0.31;47.13
20009;BME280;10165;42.662;23.260;2023-02-11T09:08:46;95636.00;;;0.45;46.31
20009;BME280;10165;42.662;23.260;2023-02-11T09:11:16;95648.16;;;0.13;46.05
20009;BME280;10165;42.662;23.260;2023-02-11T09:13:44;95631.19;;;0.04;46.81
20009;BME280;10165;42.662;23.260;2023-02-11T09:16:21;95642.69;;;0.36;46.79
20009;BME280;10165;42.662;23.260;2023-02-11T09:18:49;95635.38;;;0.82;46.01
20009;BME280;10165;42.662;23.260;2023-02-11T09:21:17;95639.41;;;0.89;45.54
20009;BME280;10165;42.662;23.260;2023-02-11T09:23:45;95627.00;;;0.41;45.99
20009;BME280;10165;42.662;23.260;2023-02-11T09:26:15;95620.16;;;0.40;46.60
20009;BME280;10165;42.662;23.260;2023-02-11T09:28:42;95621.47;;;1.08;46.44
20009;BME280;10165;42.662;23.260;2023-02-11T09:31:11;95630.59;;;0.35;47.34
20009;BME280;10165;42.662;23.260;2023-02-11T09:33:39;95620.94;;;0.63;47.14
20009;BME280;10165;42.662;23.260;2023-02-11T09:36:07;95621.19;;;0.83;46.57
20009;BME280;10165;42.662;23.260;2023-02-11T09:38:34;95618.63;;;0.88;46.36
20009;BME280;10165;42.662;23.260;2023-02-11T09:41:01;95620.75;;;0.47;46.80
20009;BME280;10165;42.662;23.260;2023-02-11T09:43:43;95615.19;;;0.66;46.46
20009;BME280;10165;42.662;23.260;2023-02-11T09:46:14;95604.72;;;0.92;46.56
20009;BME280;10165;42.662;23.260;2023-02-11T09:48:44;95604.38;;;0.84;45.99
20009;BME280;10165;42.662;23.260;2023-02-11T09:51:18;95598.84;;;0.85;45.49
20009;BME280;10165;42.662;23.260;2023-02-11T09:53:50;95600.16;;;0.39;44.82
20009;BME280;10165;42.662;23.260;2023-02-11T09:56:24;95602.31;;;0.64;45.99
20009;BME280;10165;42.662;23.260;2023-02-11T09:58:52;95586.41;;;0.76;44.88
20009;BME280;10165;42.662;23.260;2023-02-11T10:01:33;95582.59;;;0.88;45.45
20009;BME280;10165;42.662;23.260;2023-02-11T10:04:05;95578.88;;;0.63;46.09
20009;BME280;10165;42.662;23.260;2023-02-11T10:06:44;95571.47;;;0.81;44.71
20009;BME280;10165;42.662;23.260;2023-02-11T10:09:20;95571.03;;;1.16;43.76
20009;BME280;10165;42.662;23.260;2023-02-11T10:18:07;95560.34;;;1.97;42.61
20009;BME280;10165;42.662;23.260;2023-02-11T10:23:04;95540.50;;;1.84;40.75
20009;BME280;10165;42.662;23.260;2023-02-11T10:25:40;95531.66;;;2.05;41.36
20009;BME280;10165;42.662;23.260;2023-02-11T10:28:14;95522.28;;;2.24;40.81
20009;BME280;10165;42.662;23.260;2023-02-11T10:31:03;95516.56;;;1.96;41.54
20009;BME280;10165;42.662;23.260;2023-02-11T10:36:05;95490.72;;;1.82;40.89
20009;BME280;10165;42.662;23.260;2023-02-11T10:38:32;95486.91;;;2.15;40.65
20009;BME280;10165;42.662;23.260;2023-02-11T10:40:59;95475.34;;;2.21;40.46
20009;BME280;10165;42.662;23.260;2023-02-11T10:43:27;95477.00;;;2.37;39.52
20009;BME280;10165;42.662;23.260;2023-02-11T10:45:56;95472.25;;;2.50;39.19
20009;BME280;10165;42.662;23.260;2023-02-11T10:48:45;95470.56;;;2.13;38.67
20009;BME280;10165;42.662;23.260;2023-02-11T10:51:26;95465.75;;;1.95;39.82
20009;BME280;10165;42.662;23.260;2023-02-11T10:56:32;95463.41;;;2.04;41.30
20009;BME280;10165;42.662;23.260;2023-02-11T10:59:32;95464.56;;;2.28;41.18
20009;BME280;10165;42.662;23.260;2023-02-11T11:02:03;95455.13;;;2.47;41.25
20009;BME280;10165;42.662;23.260;2023-02-11T11:04:39;95447.19;;;2.42;40.55
20009;BME280;10165;42.662;23.260;2023-02-11T11:15:28;95429.09;;;2.91;40.29
20009;BME280;10165;42.662;23.260;2023-02-11T11:18:16;95439.81;;;2.44;40.75
20009;BME280;10165;42.662;23.260;2023-02-11T11:20:57;95427.22;;;2.97;40.41
20009;BME280;10165;42.662;23.260;2023-02-11T11:23:27;95435.94;;;2.82;39.63
20009;BME280;10165;42.662;23.260;2023-02-11T11:26:14;95433.78;;;2.54;39.40
20009;BME280;10165;42.662;23.260;2023-02-11T11:29:05;95428.00;;;2.77;39.13
20009;BME280;10165;42.662;23.260;2023-02-11T11:31:36;95429.84;;;2.81;40.38
20009;BME280;10165;42.662;23.260;2023-02-11T11:34:42;95435.13;;;2.66;40.04
20009;BME280;10165;42.662;23.260;2023-02-11T11:42:39;95407.41;;;3.40;39.61
20009;BME280;10165;42.662;23.260;2023-02-11T11:50:40;95414.03;;;2.81;39.96
20009;BME280;10165;42.662;23.260;2023-02-11T11:56:05;95400.41;;;3.84;38.51
20009;BME280;10165;42.662;23.260;2023-02-11T11:58:34;95389.97;;;3.38;40.06
20009;BME280;10165;42.662;23.260;2023-02-11T12:15:33;95370.75;;;2.37;39.40
20009;BME280;10165;42.662;23.260;2023-02-11T12:27:05;95346.13;;;3.43;37.56
20009;BME280;10165;42.662;23.260;2023-02-11T12:33:15;95342.41;;;3.49;36.66
20009;BME280;10165;42.662;23.260;2023-02-11T12:42:12;95320.78;;;4.01;36.53
20009;BME280;10165;42.662;23.260;2023-02-11T12:45:13;95332.16;;;3.32;37.45
20009;BME280;10165;42.662;23.260;2023-02-11T12:47:54;95323.19;;;3.92;37.24
20009;BME280;10165;42.662;23.260;2023-02-11T12:58:41;95303.47;;;4.18;37.23
20009;BME280;10165;42.662;23.260;2023-02-11T13:01:25;95309.66;;;4.48;36.90
20009;BME280;10165;42.662;23.260;2023-02-11T13:07:19;95306.00;;;4.39;36.23
20009;BME280;10165;42.662;23.260;2023-02-11T13:09:58;95307.22;;;4.12;36.03
20009;BME280;10165;42.662;23.260;2023-02-11T13:12:28;95301.31;;;4.25;37.05
20009;BME280;10165;42.662;23.260;2023-02-11T13:15:16;95296.47;;;4.38;36.49
20009;BME280;10165;42.662;23.260;2023-02-11T13:17:49;95290.03;;;4.15;36.57
20009;BME280;10165;42.662;23.260;2023-02-11T13:20:27;95293.13;;;4.27;36.25
20009;BME280;10165;42.662;23.260;2023-02-11T13:23:09;95291.56;;;3.82;36.91
20009;BME280;10165;42.662;23.260;2023-02-11T13:25:49;95295.72;;;3.93;36.67
20009;BME280;10165;42.662;23.260;2023-02-11T13:31:21;95298.66;;;4.25;36.14
20009;BME280;10165;42.662;23.260;2023-02-11T13:33:52;95289.09;;;4.34;36.18
20009;BME280;10165;42.662;23.260;2023-02-11T13:36:24;95285.16;;;4.32;35.59
20009;BME280;10165;42.662;23.260;2023-02-11T13:39:01;95288.63;;;4.27;35.75
20009;BME280;10165;42.662;23.260;2023-02-11T13:41:32;95278.81;;;4.33;36.42
20009;BME280;10165;42.662;23.260;2023-02-11T13:46:57;95274.91;;;4.83;34.76
20009;BME280;10165;42.662;23.260;2023-02-11T13:52:00;95279.41;;;3.76;35.96
20009;BME280;10165;42.662;23.260;2023-02-11T13:54:31;95275.53;;;4.46;35.83
20009;BME280;10165;42.662;23.260;2023-02-11T13:57:22;95270.47;;;4.50;34.56
20009;BME280;10165;42.662;23.260;2023-02-11T13:59:56;95264.97;;;4.07;34.80
20009;BME280;10165;42.662;23.260;2023-02-11T14:05:19;95255.06;;;3.84;35.27
20009;BME280;10165;42.662;23.260;2023-02-11T14:11:02;95248.06;;;4.37;35.73
20009;BME280;10165;42.662;23.260;2023-02-11T14:13:35;95259.53;;;4.90;34.45
20009;BME280;10165;42.662;23.260;2023-02-11T14:16:08;95259.84;;;4.55;35.41
20009;BME280;10165;42.662;23.260;2023-02-11T14:18:37;95254.78;;;4.58;35.71
20009;BME280;10165;42.662;23.260;2023-02-11T14:21:20;95251.09;;;4.59;34.98
20009;BME280;10165;42.662;23.260;2023-02-11T14:23:49;95243.81;;;4.07;35.62
20009;BME280;10165;42.662;23.260;2023-02-11T14:29:17;95255.34;;;3.82;36.70
20009;BME280;10165;42.662;23.260;2023-02-11T14:35:11;95240.13;;;4.03;37.13
20009;BME280;10165;42.662;23.260;2023-02-11T14:38:01;95244.72;;;3.88;37.21
20009;BME280;10165;42.662;23.260;2023-02-11T14:40:43;95251.03;;;3.97;37.76
20009;BME280;10165;42.662;23.260;2023-02-11T14:43:22;95250.94;;;4.07;37.01
20009;BME280;10165;42.662;23.260;2023-02-11T14:45:53;95241.81;;;3.89;38.23
20009;BME280;10165;42.662;23.260;2023-02-11T14:48:27;95248.53;;;4.10;37.49
20009;BME280;10165;42.662;23.260;2023-02-11T14:51:11;95246.63;;;4.21;37.77
20009;BME280;10165;42.662;23.260;2023-02-11T14:53:43;95245.88;;;4.15;37.83
20009;BME280;10165;42.662;23.260;2023-02-11T14:56:26;95253.59;;;4.07;38.13
20009;BME280;10165;42.662;23.260;2023-02-11T14:58:54;95249.16;;;4.36;38.21
20009;BME280;10165;42.662;23.260;2023-02-11T15:04:03;95248.69;;;4.29;38.18
20009;BME280;10165;42.662;23.260;2023-02-11T15:06:39;95249.97;;;4.37;38.09
20009;BME280;10165;42.662;23.260;2023-02-11T15:09:16;95245.78;;;4.25;38.83
20009;BME280;10165;42.662;23.260;2023-02-11T15:11:51;95250.31;;;4.25;38.89
20009;BME280;10165;42.662;23.260;2023-02-11T15:14:22;95243.19;;;4.20;38.54
20009;BME280;10165;42.662;23.260;2023-02-11T15:16:51;95234.94;;;4.27;38.29
20009;BME280;10165;42.662;23.260;2023-02-11T15:19:23;95233.75;;;4.43;38.80
20009;BME280;10165;42.662;23.260;2023-02-11T15:21:52;95223.69;;;4.11;39.40
20009;BME280;10165;42.662;23.260;2023-02-11T15:24:30;95229.84;;;4.36;38.83
20009;BME280;10165;42.662;23.260;2023-02-11T15:29:40;95210.31;;;4.60;38.16
20009;BME280;10165;42.662;23.260;2023-02-11T15:32:21;95208.16;;;4.33;38.75
20009;BME280;10165;42.662;23.260;2023-02-11T15:34:50;95210.03;;;4.62;38.29